地図

経路データ

SID SEASON NUMBER BASIN SUBBASIN NAME ISO_TIME NATURE LAT LON WMO_WIND WMO_PRES WMO_AGENCY TRACK_TYPE DIST2LAND LANDFALL IFLAG USA_AGENCY USA_ATCF_ID USA_LAT USA_LON USA_RECORD USA_STATUS USA_WIND USA_PRES USA_SSHS USA_R34_NE USA_R34_SE USA_R34_SW USA_R34_NW USA_R50_NE USA_R50_SE USA_R50_SW USA_R50_NW USA_R64_NE USA_R64_SE USA_R64_SW USA_R64_NW USA_POCI USA_ROCI USA_RMW USA_EYE TOKYO_LAT TOKYO_LON TOKYO_GRADE TOKYO_WIND TOKYO_PRES TOKYO_R50_DIR TOKYO_R50_LONG TOKYO_R50_SHORT TOKYO_R30_DIR TOKYO_R30_LONG TOKYO_R30_SHORT TOKYO_LAND CMA_LAT CMA_LON CMA_CAT CMA_WIND CMA_PRES HKO_LAT HKO_LON HKO_CAT HKO_WIND HKO_PRES NEWDELHI_LAT NEWDELHI_LON NEWDELHI_GRADE NEWDELHI_WIND NEWDELHI_PRES NEWDELHI_CI NEWDELHI_DP NEWDELHI_POCI REUNION_LAT REUNION_LON REUNION_TYPE REUNION_WIND REUNION_PRES REUNION_TNUM REUNION_CI REUNION_RMW REUNION_R34_NE REUNION_R34_SE REUNION_R34_SW REUNION_R34_NW REUNION_R50_NE REUNION_R50_SE REUNION_R50_SW REUNION_R50_NW REUNION_R64_NE REUNION_R64_SE REUNION_R64_SW REUNION_R64_NW BOM_LAT BOM_LON BOM_TYPE BOM_WIND BOM_PRES BOM_TNUM BOM_CI BOM_RMW BOM_R34_NE BOM_R34_SE BOM_R34_SW BOM_R34_NW BOM_R50_NE BOM_R50_SE BOM_R50_SW BOM_R50_NW BOM_R64_NE BOM_R64_SE BOM_R64_SW BOM_R64_NW BOM_ROCI BOM_POCI BOM_EYE BOM_POS_METHOD BOM_PRES_METHOD NADI_LAT NADI_LON NADI_CAT NADI_WIND NADI_PRES WELLINGTON_LAT WELLINGTON_LON WELLINGTON_WIND WELLINGTON_PRES DS824_LAT DS824_LON DS824_STAGE DS824_WIND DS824_PRES TD9636_LAT TD9636_LON TD9636_STAGE TD9636_WIND TD9636_PRES TD9635_LAT TD9635_LON TD9635_WIND TD9635_PRES TD9635_ROCI NEUMANN_LAT NEUMANN_LON NEUMANN_CLASS NEUMANN_WIND NEUMANN_PRES MLC_LAT MLC_LON MLC_CLASS MLC_WIND MLC_PRES USA_GUST BOM_GUST BOM_GUST_PER REUNION_GUST REUNION_GUST_PER USA_SEAHGT USA_SEARAD_NE USA_SEARAD_SE USA_SEARAD_SW USA_SEARAD_NW STORM_SPEED STORM_DIR
1956001S17189 1956 1 SP MM NOT_NAMED 1956-01-01 00:00:00 TS -17.4000 -171.000 main 422 422 O________OO___ jtwc_sh SH061956 -17.4000 -171.000 -1 -17.4000 189.000 TC -17.4000 -171.000 2 12 111
1956001S17189 1956 1 SP MM NOT_NAMED 1956-01-01 03:00:00 TS -17.6089 -170.433 main 466 466 P________PP___ SH061956 -17.6154 -170.435 -1 -17.6154 -170.435 TC -17.5961 -170.428 2 11 110
1956001S17189 1956 1 SP MM NOT_NAMED 1956-01-01 06:00:00 TS -17.7910 -169.895 main 510 510 O________OP___ jtwc_sh SH061956 -17.8000 -169.900 -1 -17.8000 190.100 TC -17.7730 -169.885 2 10 108
1956001S17189 1956 1 SP MM NOT_NAMED 1956-01-01 09:00:00 TS -17.9243 -169.413 main 548 548 P________PP___ SH061956 -17.9299 -169.420 -1 -17.9299 -169.420 TC -17.9133 -169.399 2 9 104
1956001S17189 1956 1 SP MM NOT_NAMED 1956-01-01 12:00:00 TS -18.0000 -169.000 main 581 581 O________OO___ jtwc_sh SH061956 -18.0000 -169.000 -1 -18.0000 191.000 TC -18.0000 -169.000 2 7 97
1956001S17189 1956 1 SP MM NOT_NAMED 1956-01-01 15:00:00 TS -18.0136 -168.656 main 600 600 P________PP___ SH061956 -18.0073 -168.635 -1 -18.0073 -168.635 TC -18.0261 -168.699 2 6 91
1956001S17189 1956 1 SP MM NOT_NAMED 1956-01-01 18:00:00 TS -18.0079 -168.342 main 628 628 O________OP___ jtwc_sh SH061956 -18.0000 -168.300 -1 -18.0000 191.700 TC -18.0238 -168.425 2 6 92
1956001S17189 1956 1 SP MM NOT_NAMED 1956-01-01 21:00:00 TS -18.0294 -168.051 main 642 642 P________PP___ SH061956 -18.0267 -168.032 -1 -18.0267 -168.032 TC -18.0348 -168.089 2 7 97
1956001S17189 1956 1 SP MM NOT_NAMED 1956-01-02 00:00:00 TS -18.1000 -167.600 main 688 688 O________OO___ jtwc_sh SH061956 -18.1000 -167.600 -1 -18.1000 192.400 TC -18.1000 -167.600 2 12 99
1956001S17189 1956 1 SP MM NOT_NAMED 1956-01-02 03:00:00 TS -18.2255 -166.784 main 758 758 P________PP___ SH061956 -18.2129 -166.790 -1 -18.2129 -166.790 TC -18.2509 -166.772 2 17 101
1956001S17189 1956 1 SP MM NOT_NAMED 1956-01-02 06:00:00 TS -18.4193 -165.799 main 855 855 O________OP___ jtwc_sh SH061956 -18.4000 -165.800 -1 -18.4000 194.200 TC -18.4579 -165.796 2 19 104
1956001S17189 1956 1 SP MM NOT_NAMED 1956-01-02 09:00:00 TS -18.6837 -164.798 main 961 961 P________PP___ SH061956 -18.6704 -164.798 -1 -18.6704 -164.798 TC -18.7103 -164.797 2 19 108
1956001S17189 1956 1 SP MM NOT_NAMED 1956-01-02 12:00:00 TS -19.0000 -163.900 main 1059 1059 O________OO___ jtwc_sh SH061956 -19.0000 -163.900 -1 -19.0000 196.100 TC -19.0000 -163.900 2 16 114
1956001S17189 1956 1 SP MM NOT_NAMED 1956-01-02 15:00:00 TS -19.3291 -163.263 main 1130 1130 P________PP___ SH061956 -19.3418 -163.275 -1 -19.3418 -163.275 TC -19.3038 -163.241 2 13 123
1956001S17189 1956 1 SP MM NOT_NAMED 1956-01-02 18:00:00 TS -19.6817 -162.768 main 1198 1198 O________OP___ jtwc_sh SH061956 -19.7000 -162.800 -1 -19.7000 197.200 TC -19.6451 -162.705 2 12 128
1956001S17189 1956 1 SP MM NOT_NAMED 1956-01-02 21:00:00 TS -20.0329 -162.302 main 1260 1260 P________PP___ SH061956 -20.0424 -162.320 -1 -20.0424 -162.320 TC -20.0139 -162.266 2 11 131
1956001S17189 1956 1 SP MM NOT_NAMED 1956-01-03 00:00:00 TS -20.4000 -161.900 main 1319 1319 O________OO___ jtwc_sh SH061956 -20.4000 -161.900 -1 -20.4000 198.100 TC -20.4000 -161.900 2 11 136
1956001S17189 1956 1 SP MM NOT_NAMED 1956-01-03 03:00:00 TS -20.7873 -161.513 main 1379 1379 P________PP___ SH061956 -20.7924 -161.512 -1 -20.7924 -161.512 TC -20.7770 -161.515 2 10 140
1956001S17189 1956 1 SP MM NOT_NAMED 1956-01-03 06:00:00 TS -21.1898 -161.200 main 1429 1429 O________OP___ jtwc_sh SH061956 -21.2000 -161.200 -1 -21.2000 198.800 TC -21.1695 -161.200 2 10 147
1956001S17189 1956 1 SP MM NOT_NAMED 1956-01-03 09:00:00 TS -21.5874 -160.956 main 1471 1471 P________PP___ SH061956 -21.5924 -160.955 -1 -21.5924 -160.955 TC -21.5772 -160.960 2 9 155
1956001S17189 1956 1 SP MM NOT_NAMED 1956-01-03 12:00:00 TS -22.0000 -160.800 main 1514 1514 O________OO___ jtwc_sh SH061956 -22.0000 -160.800 -1 -22.0000 199.200 TC -22.0000 -160.800 2 9 165
1956001S17189 1956 1 SP MM NOT_NAMED 1956-01-03 15:00:00 TS -22.4406 -160.716 main 1548 1548 P________PP___ SH061956 -22.4425 -160.712 -1 -22.4425 -160.712 TC -22.4370 -160.723 2 9 174
1956001S17189 1956 1 SP MM NOT_NAMED 1956-01-03 18:00:00 TS -22.8951 -160.704 main 1582 1582 O________OP___ jtwc_sh SH061956 -22.9000 -160.700 -1 -22.9000 199.300 TC -22.8852 -160.712 2 9 181
1956001S17189 1956 1 SP MM NOT_NAMED 1956-01-03 21:00:00 TS -23.3486 -160.740 main 1610 1609 P________PP___ SH061956 -23.3525 -160.737 -1 -23.3525 -160.737 TC -23.3407 -160.745 2 9 185
1956001S17189 1956 1 SP MM NOT_NAMED 1956-01-04 00:00:00 TS -23.8000 -160.800 main 1638 O________OO___ jtwc_sh SH061956 -23.8000 -160.800 -1 -23.8000 199.200 TC -23.8000 -160.800 2 9 187

デジタル台風データ・検索

IBTrACS Databaseについて

本データベースは、米国NOAAが公開する1842年以降の世界の熱帯低気圧のベストトラックデータアーカイブInternational Best Track Archive for Climate Stewardship (IBTrACS)を、ウェブで閲覧しやすい形式に変換したものです。

最終更新日:2021-10-21